Time;durP1;ratioP1;P1;durP2;ratioP2;P2;SDS_P1;SDS_P2;PMS_P1;PMS_P2;Temp;Humidity;BMP_temperature;BMP_pressure;BME280_temperature;BME280_humidity;BME280_pressure;Samples;Min_cycle;Max_cycle;Signal;HPM_P1;HPM_P2
2021/05/08 00:00:36;;;;;;;11.45;8.57;;;;;;;3.85;63.80;99830.94;5072666;28;20028;-68
2021/05/08 00:03:02;;;;;;;11.07;7.55;;;;;;;3.81;64.49;99827.53;5071653;28;20040;-69
2021/05/08 00:05:28;;;;;;;13.88;9.40;;;;;;;3.80;64.79;99832.78;5070908;28;20091;-69
2021/05/08 00:07:54;;;;;;;10.25;7.30;;;;;;;3.79;64.47;99836.25;5071910;28;20491;-69
2021/05/08 00:10:19;;;;;;;9.40;7.25;;;;;;;3.75;64.42;99838.09;5071631;28;20044;-69
2021/05/08 00:12:45;;;;;;;10.18;8.02;;;;;;;3.72;65.14;99832.09;5071775;28;20528;-70
2021/05/08 00:15:12;;;;;;;11.18;7.13;;;;;;;3.66;64.76;99828.69;5071336;28;20434;-69
2021/05/08 00:17:38;;;;;;;10.38;7.90;;;;;;;3.64;64.96;99822.69;5072001;28;20032;-70
2021/05/08 00:20:11;;;;;;;11.48;7.90;;;;;;;3.65;64.92;99820.94;5071153;28;20036;-70
2021/05/08 00:22:37;;;;;;;17.67;7.30;;;;;;;3.63;64.77;99815.72;5071764;28;20400;-69
2021/05/08 00:25:04;;;;;;;10.30;7.07;;;;;;;3.59;64.09;99816.69;5071819;28;20031;-69
2021/05/08 00:27:30;;;;;;;8.90;7.72;;;;;;;3.58;64.20;99820.19;5071911;28;20036;-69
2021/05/08 00:29:55;;;;;;;12.27;8.52;;;;;;;3.55;65.00;99804.63;5073285;28;20561;-68
2021/05/08 00:32:21;;;;;;;11.18;6.72;;;;;;;3.57;64.47;99807.16;5075456;28;20056;-69
2021/05/08 00:34:46;;;;;;;9.30;6.82;;;;;;;3.57;64.41;99802.84;5075937;28;20040;-69
2021/05/08 00:37:11;;;;;;;9.95;7.60;;;;;;;3.55;64.82;99798.53;5076012;28;20560;-69
2021/05/08 00:39:36;;;;;;;11.10;7.53;;;;;;;3.53;63.53;99793.34;5076771;28;20519;-69
2021/05/08 00:42:02;;;;;;;10.75;6.72;;;;;;;3.55;63.49;99795.94;5076253;28;20044;-69
2021/05/08 00:44:27;;;;;;;10.60;8.60;;;;;;;3.57;63.79;99787.19;5082564;28;20031;-69
2021/05/08 00:46:54;;;;;;;9.77;5.97;;;;;;;3.61;63.14;99787.97;5099001;28;20280;-69
2021/05/08 00:49:21;;;;;;;7.65;6.05;;;;;;;3.62;63.05;99782.75;5097179;28;20435;-69
2021/05/08 00:51:47;;;;;;;11.65;6.50;;;;;;;3.63;62.55;99776.63;5090511;28;20122;-69
2021/05/08 00:54:12;;;;;;;11.27;7.03;;;;;;;3.63;62.26;99775.78;5089561;28;20076;-69
2021/05/08 00:56:38;;;;;;;9.48;6.10;;;;;;;3.60;62.69;99774.09;5070390;28;20505;-69
2021/05/08 00:59:03;;;;;;;8.30;5.65;;;;;;;3.57;62.63;99773.28;5070462;28;20039;-69
2021/05/08 01:01:29;;;;;;;9.77;6.43;;;;;;;3.55;63.41;99775.09;5047066;28;20131;-69
2021/05/08 01:03:54;;;;;;;10.80;5.75;;;;;;;3.51;63.95;99765.59;5067143;28;20110;-70
2021/05/08 01:06:19;;;;;;;8.60;5.95;;;;;;;3.48;63.55;99755.25;5070328;28;20130;-69
2021/05/08 01:08:45;;;;;;;7.35;5.55;;;;;;;3.47;63.28;99756.13;5060760;28;20134;-70
2021/05/08 01:11:11;;;;;;;13.73;6.68;;;;;;;3.44;63.01;99754.44;5050228;28;20037;-70
2021/05/08 01:13:37;;;;;;;9.32;7.30;;;;;;;3.43;63.03;99763.16;5050376;28;20025;-70
2021/05/08 01:16:03;;;;;;;9.40;7.47;;;;;;;3.40;63.31;99764.09;5050283;28;20028;-70
2021/05/08 01:18:29;;;;;;;8.52;6.57;;;;;;;3.35;64.27;99762.47;5049943;28;20561;-70
2021/05/08 01:20:55;;;;;;;9.32;6.50;;;;;;;3.28;64.32;99759.13;5049924;28;20480;-69
2021/05/08 01:23:20;;;;;;;10.80;7.38;;;;;;;3.22;64.50;99757.50;5050601;28;20043;-70
2021/05/08 01:25:46;;;;;;;11.05;8.57;;;;;;;3.10;65.49;99756.84;5015690;28;20484;-70
2021/05/08 01:28:11;;;;;;;10.02;7.85;;;;;;;2.94;66.13;99759.75;5049829;28;20395;-69
2021/05/08 01:30:37;;;;;;;12.60;7.53;;;;;;;2.89;66.32;99752.94;5051265;28;20032;-68
2021/05/08 01:33:04;;;;;;;15.25;9.48;;;;;;;2.89;66.39;99753.78;5066715;28;20029;-69
2021/05/08 01:35:31;;;;;;;15.18;7.03;;;;;;;2.89;66.89;99751.19;5071121;28;20483;-69
2021/05/08 01:37:57;;;;;;;9.52;7.90;;;;;;;2.93;66.26;99752.84;5061884;28;20025;-69
2021/05/08 01:40:28;;;;;;;6.93;6.22;;;;;;;2.99;65.77;99750.13;5070805;28;20025;-69
2021/05/08 01:42:53;;;;;;;10.25;6.43;;;;;;;3.00;66.23;99745.75;5070259;28;20060;-69
2021/05/08 01:45:20;;;;;;;11.45;7.32;;;;;;;2.98;66.15;99737.16;5069981;28;20122;-70
2021/05/08 01:47:46;;;;;;;9.45;7.03;;;;;;;2.95;66.05;99745.00;5051847;28;20045;-69
2021/05/08 01:50:14;;;;;;;11.35;7.65;;;;;;;2.95;66.02;99731.97;5069101;28;20032;-69
2021/05/08 01:52:40;;;;;;;12.00;6.63;;;;;;;2.94;65.97;99738.94;5069844;28;20032;-69
2021/05/08 01:55:12;;;;;;;9.15;6.78;;;;;;;2.91;66.02;99731.19;5069464;28;20438;-70
2021/05/08 01:57:42;;;;;;;7.85;6.30;;;;;;;2.85;66.94;99727.81;5069083;28;20039;-70
2021/05/08 02:00:16;;;;;;;9.43;6.28;;;;;;;2.80;66.90;99727.91;5069397;28;20115;-70
2021/05/08 02:02:41;;;;;;;10.23;6.60;;;;;;;2.80;66.60;99728.75;5069239;28;20116;-70
2021/05/08 02:05:07;;;;;;;9.35;7.20;;;;;;;2.82;66.56;99727.91;5069090;28;20123;-69
2021/05/08 02:07:33;;;;;;;8.63;7.22;;;;;;;2.83;66.36;99716.59;5069422;28;20032;-69
2021/05/08 02:09:58;;;;;;;9.05;7.55;;;;;;;2.84;66.55;99707.91;5069126;28;20056;-69
2021/05/08 02:12:29;;;;;;;8.73;6.85;;;;;;;2.80;67.01;99704.47;5069861;28;20032;-70
2021/05/08 02:14:55;;;;;;;12.18;6.47;;;;;;;2.78;67.49;99714.94;5069625;28;20492;-69
2021/05/08 02:17:20;;;;;;;9.80;6.47;;;;;;;2.78;66.91;99719.25;5069371;28;20549;-70
2021/05/08 02:19:45;;;;;;;14.45;8.98;;;;;;;2.76;67.09;99711.50;5089524;28;20035;-69
2021/05/08 02:22:10;;;;;;;15.45;9.98;;;;;;;2.77;67.06;99715.81;5089544;28;20032;-70
2021/05/08 02:24:36;;;;;;;11.20;8.35;;;;;;;2.77;67.47;99709.75;5089405;28;20036;-69
2021/05/08 02:27:01;;;;;;;7.88;6.05;;;;;;;2.76;67.47;99711.50;5089588;28;20408;-69
2021/05/08 02:29:26;;;;;;;7.93;6.35;;;;;;;2.73;67.63;99702.88;5089856;28;20043;-69
2021/05/08 02:31:52;;;;;;;9.10;6.13;;;;;;;2.73;67.85;99702.88;5084394;28;20029;-70
2021/05/08 02:34:17;;;;;;;7.88;6.03;;;;;;;2.75;67.78;99695.91;5047493;28;20427;-69
2021/05/08 02:36:42;;;;;;;8.50;6.78;;;;;;;2.79;67.47;99698.41;5068441;28;20048;-69
2021/05/08 02:39:07;;;;;;;11.20;6.75;;;;;;;2.77;67.71;99692.38;5069176;28;20116;-68
2021/05/08 02:41:33;;;;;;;9.23;6.10;;;;;;;2.82;67.64;99678.44;5068543;28;20051;-68
2021/05/08 02:43:58;;;;;;;7.22;5.90;;;;;;;2.82;68.02;99678.44;5069015;28;20033;-69
2021/05/08 02:46:23;;;;;;;12.15;5.93;;;;;;;2.84;67.80;99681.88;5069504;28;20048;-69
2021/05/08 02:48:49;;;;;;;8.02;5.25;;;;;;;2.86;67.55;99678.34;5064497;28;20431;-69
2021/05/08 02:51:14;;;;;;;9.73;6.70;;;;;;;2.89;67.67;99667.00;5048634;28;20076;-69
2021/05/08 02:53:39;;;;;;;7.18;6.35;;;;;;;2.94;67.32;99665.16;5048578;28;20078;-69
2021/05/08 02:56:05;;;;;;;6.30;4.80;;;;;;;2.95;67.52;99661.66;5061724;28;20036;-69
2021/05/08 02:58:30;;;;;;;8.32;5.25;;;;;;;3.01;66.99;99661.56;5068349;28;20029;-69
2021/05/08 03:00:55;;;;;;;8.35;5.40;;;;;;;3.08;66.60;99641.47;5068713;28;20098;-68
2021/05/08 03:03:21;;;;;;;8.65;5.68;;;;;;;3.14;66.70;99652.59;5068822;28;20047;-69
2021/05/08 03:05:46;;;;;;;8.38;4.97;;;;;;;3.21;66.22;99648.13;5050452;28;20074;-68
2021/05/08 03:08:11;;;;;;;14.55;5.00;;;;;;;3.27;66.06;99647.97;5070102;28;20561;-69
2021/05/08 03:10:37;;;;;;;8.05;4.45;;;;;;;3.33;65.71;99647.84;5072583;28;20037;-69
2021/05/08 03:13:02;;;;;;;9.52;5.85;;;;;;;3.38;65.95;99639.94;5072520;28;20033;-68
2021/05/08 03:15:27;;;;;;;9.18;4.75;;;;;;;3.41;65.56;99639.84;5072107;28;20043;-68
2021/05/08 03:17:53;;;;;;;11.23;4.32;;;;;;;3.48;65.45;99635.38;5072907;28;20044;-69
2021/05/08 03:20:19;;;;;;;6.75;4.72;;;;;;;3.55;64.60;99632.59;5072267;28;20123;-69
2021/05/08 03:22:44;;;;;;;15.35;5.30;;;;;;;3.60;65.02;99635.09;5072436;28;20115;-68
2021/05/08 03:25:10;;;;;;;6.43;3.80;;;;;;;3.65;65.03;99636.69;5072245;28;20033;-69
2021/05/08 03:27:35;;;;;;;6.07;3.97;;;;;;;3.76;64.76;99632.97;5071889;28;20032;-69
2021/05/08 03:30:01;;;;;;;5.85;4.03;;;;;;;3.84;64.84;99638.88;5072345;28;20045;-68
2021/05/08 03:32:26;;;;;;;6.85;3.47;;;;;;;3.91;64.34;99636.94;5072228;28;20033;-69
2021/05/08 03:34:51;;;;;;;6.32;3.88;;;;;;;3.99;64.20;99629.81;5090086;28;20032;-68
2021/05/08 03:37:17;;;;;;;7.07;4.15;;;;;;;4.07;63.84;99638.31;5083657;28;20032;-68
2021/05/08 03:39:42;;;;;;;7.00;4.00;;;;;;;4.15;63.60;99627.66;5072185;28;20028;-69
2021/05/08 03:42:07;;;;;;;7.43;3.95;;;;;;;4.17;63.60;99618.91;5072034;28;20044;-68
2021/05/08 03:44:33;;;;;;;6.78;4.05;;;;;;;4.23;63.43;99623.09;5072107;28;20053;-68
2021/05/08 03:46:58;;;;;;;6.80;4.97;;;;;;;4.26;63.36;99621.28;5072516;28;20484;-68
2021/05/08 03:49:23;;;;;;;9.15;6.07;;;;;;;4.30;63.54;99619.44;5076989;28;20033;-70
2021/05/08 03:51:51;;;;;;;7.25;4.53;;;;;;;4.36;62.37;99621.06;5076982;28;20522;-70
2021/05/08 03:54:17;;;;;;;6.20;4.35;;;;;;;4.44;62.94;99627.75;5081995;28;20059;-69
2021/05/08 03:56:42;;;;;;;8.25;4.65;;;;;;;4.52;62.28;99628.41;5083986;28;20036;-69
2021/05/08 03:59:08;;;;;;;5.55;3.92;;;;;;;4.56;62.10;99615.28;5078934;28;20040;-69
2021/05/08 04:01:33;;;;;;;8.32;4.25;;;;;;;4.61;61.92;99616.00;5077340;28;20051;-69
2021/05/08 04:03:58;;;;;;;8.23;4.15;;;;;;;4.66;62.00;99617.59;5071130;28;20091;-69
2021/05/08 04:06:25;;;;;;;8.18;4.10;;;;;;;4.74;61.71;99623.44;5077757;28;20032;-69
2021/05/08 04:08:50;;;;;;;8.45;4.20;;;;;;;4.83;61.72;99617.13;5079718;28;20088;-69
2021/05/08 04:11:16;;;;;;;6.82;3.80;;;;;;;4.91;61.24;99609.91;5082470;28;20412;-69
2021/05/08 04:13:41;;;;;;;5.68;4.65;;;;;;;5.08;61.04;99611.19;5071776;28;20419;-69
2021/05/08 04:16:07;;;;;;;4.57;3.33;;;;;;;5.25;59.21;99614.16;5071275;28;20051;-69
2021/05/08 04:18:32;;;;;;;4.03;2.97;;;;;;;5.44;58.73;99610.94;5071010;28;20044;-71
2021/05/08 04:20:58;;;;;;;4.88;3.42;;;;;;;5.65;57.99;99612.91;5071265;28;20640;-68
2021/05/08 04:23:23;;;;;;;9.43;4.78;;;;;;;5.84;56.55;99605.31;5071651;28;20033;-69
2021/05/08 04:25:48;;;;;;;5.82;4.45;;;;;;;6.05;56.36;99602.91;5052893;28;20399;-70
2021/05/08 04:28:14;;;;;;;10.07;4.45;;;;;;;6.23;54.73;99599.69;5070906;28;20042;-69
2021/05/08 04:30:39;;;;;;;4.80;3.05;;;;;;;6.43;53.72;99596.38;5071111;28;20815;-69
2021/05/08 04:33:05;;;;;;;6.85;3.38;;;;;;;6.63;53.00;99593.88;5070722;28;20079;-68
2021/05/08 04:35:30;;;;;;;5.25;3.10;;;;;;;6.83;52.05;99592.31;5070381;28;20033;-68
2021/05/08 04:38:01;;;;;;;7.47;3.60;;;;;;;7.01;51.68;99586.38;5071323;28;20021;-68
2021/05/08 04:40:27;;;;;;;5.38;3.08;;;;;;;7.15;50.85;99587.63;5070401;28;20112;-71
2021/05/08 04:42:52;;;;;;;6.22;3.33;;;;;;;7.27;51.05;99589.78;5071301;28;20047;-68
2021/05/08 04:45:17;;;;;;;7.10;3.53;;;;;;;7.39;49.82;99593.69;5069229;28;20440;-69
2021/05/08 04:47:43;;;;;;;6.88;3.33;;;;;;;7.51;49.78;99598.47;5070563;28;20036;-70
2021/05/08 04:50:09;;;;;;;6.15;3.63;;;;;;;7.63;49.27;99599.72;5070784;28;20597;-69
2021/05/08 04:52:34;;;;;;;8.45;3.22;;;;;;;7.74;48.10;99595.75;5070585;28;20037;-70
2021/05/08 04:54:59;;;;;;;7.55;3.75;;;;;;;7.86;48.14;99601.41;5070310;28;20029;-70
2021/05/08 04:57:25;;;;;;;4.53;2.72;;;;;;;7.98;48.09;99600.91;5071274;28;20048;-70
2021/05/08 04:59:50;;;;;;;7.70;3.15;;;;;;;8.07;47.51;99612.78;5069535;28;20036;-70
2021/05/08 05:02:16;;;;;;;4.57;2.78;;;;;;;8.12;47.78;99608.19;5070507;28;20040;-70
2021/05/08 05:04:41;;;;;;;4.70;3.25;;;;;;;8.20;47.44;99602.66;5063129;28;20029;-70
2021/05/08 05:07:06;;;;;;;7.85;3.00;;;;;;;8.28;46.59;99604.00;5050200;28;20512;-70
2021/05/08 05:09:33;;;;;;;7.75;2.85;;;;;;;8.38;46.71;99601.84;5050288;28;20062;-70
2021/05/08 05:11:59;;;;;;;7.53;3.05;;;;;;;8.46;46.67;99606.78;5048773;28;20044;-70
2021/05/08 05:14:24;;;;;;;7.22;3.05;;;;;;;8.55;46.24;99599.38;5051549;28;20029;-70
2021/05/08 05:16:49;;;;;;;4.97;2.72;;;;;;;8.65;46.56;99596.34;5054277;28;20479;-70
2021/05/08 05:19:15;;;;;;;6.50;2.90;;;;;;;8.75;45.56;99600.25;5070523;28;20111;-70
2021/05/08 05:21:40;;;;;;;5.78;3.33;;;;;;;8.88;45.84;99590.91;5070194;28;20035;-70
2021/05/08 05:24:06;;;;;;;6.53;3.53;;;;;;;8.99;45.62;99598.31;5069831;28;20116;-69
2021/05/08 05:26:31;;;;;;;5.05;2.78;;;;;;;9.15;44.79;99598.44;5069764;28;20043;-69
2021/05/08 05:28:57;;;;;;;6.47;3.25;;;;;;;9.24;45.09;99592.75;5070651;28;20101;-70
2021/05/08 05:31:22;;;;;;;4.70;2.78;;;;;;;9.31;44.63;99596.81;5069364;28;20036;-69
2021/05/08 05:33:48;;;;;;;5.43;3.28;;;;;;;9.36;44.61;99596.59;5069843;28;20051;-69
2021/05/08 05:36:13;;;;;;;5.05;3.13;;;;;;;9.43;43.90;99587.50;5069481;28;20036;-69
2021/05/08 05:38:38;;;;;;;6.00;4.50;;;;;;;9.55;43.71;99584.28;5051729;28;20031;-69
2021/05/08 05:41:03;;;;;;;9.27;3.17;;;;;;;9.76;43.66;99584.16;5069716;28;20608;-67
2021/05/08 05:43:29;;;;;;;4.90;3.22;;;;;;;9.99;43.12;99586.50;5069305;28;20400;-68
2021/05/08 05:45:54;;;;;;;6.40;4.30;;;;;;;10.22;42.06;99600.28;5070024;28;20480;-67
2021/05/08 05:48:20;;;;;;;8.48;3.60;;;;;;;10.46;41.45;99596.44;5069057;28;20526;-68
2021/05/08 05:50:46;;;;;;;5.38;3.55;;;;;;;10.62;41.52;99593.84;5049156;28;20029;-68
2021/05/08 05:53:13;;;;;;;5.32;3.17;;;;;;;10.74;41.60;99594.97;5031463;28;20036;-69
2021/05/08 05:55:38;;;;;;;5.70;3.38;;;;;;;10.81;41.13;99600.78;5049128;28;20032;-69
2021/05/08 05:58:04;;;;;;;5.78;3.65;;;;;;;10.87;41.07;99611.84;5049436;28;20036;-67
2021/05/08 06:00:30;;;;;;;8.13;3.85;;;;;;;10.93;40.72;99605.41;5049305;28;20112;-67
2021/05/08 06:02:55;;;;;;;11.35;4.50;;;;;;;11.08;40.34;99606.38;5049409;28;20182;-68
2021/05/08 06:05:20;;;;;;;9.43;4.80;;;;;;;11.21;40.86;99612.66;5031644;28;20029;-69
2021/05/08 06:07:46;;;;;;;6.28;4.25;;;;;;;11.33;40.21;99611.16;5049467;28;20512;-71
2021/05/08 06:10:13;;;;;;;8.77;4.43;;;;;;;11.53;39.36;99602.97;5048889;28;20041;-69
2021/05/08 06:12:38;;;;;;;6.72;4.03;;;;;;;11.74;39.69;99608.84;5039360;28;20033;-69
2021/05/08 06:15:05;;;;;;;5.13;4.00;;;;;;;11.80;38.92;99608.47;5068751;28;20063;-68
2021/05/08 06:17:31;;;;;;;9.23;5.35;;;;;;;11.88;39.06;99610.69;5068886;28;20502;-69
2021/05/08 06:19:56;;;;;;;8.90;4.70;;;;;;;11.86;38.84;99607.25;5069749;28;20107;-68
2021/05/08 06:22:22;;;;;;;9.70;4.18;;;;;;;11.91;39.30;99601.75;5069500;28;20435;-69
2021/05/08 06:24:47;;;;;;;10.60;5.22;;;;;;;11.94;38.30;99606.88;5068984;28;20036;-69
2021/05/08 06:27:12;;;;;;;9.93;4.78;;;;;;;11.97;38.06;99602.25;5068987;28;20391;-68
2021/05/08 06:29:38;;;;;;;9.32;3.70;;;;;;;12.07;38.38;99610.50;5060396;28;20508;-69
2021/05/08 06:32:04;;;;;;;7.93;4.22;;;;;;;12.13;38.77;99607.50;5067413;28;20048;-69
2021/05/08 06:34:30;;;;;;;8.35;4.30;;;;;;;12.24;38.16;99606.88;5051058;28;20058;-69
2021/05/08 06:36:58;;;;;;;7.07;3.97;;;;;;;12.33;38.05;99601.06;5069432;28;20031;-69
2021/05/08 06:39:23;;;;;;;7.05;3.78;;;;;;;12.27;38.15;99597.91;5069337;28;20032;-71
2021/05/08 06:41:49;;;;;;;8.48;4.13;;;;;;;12.35;37.88;99604.44;5069657;28;20124;-71
2021/05/08 06:44:14;;;;;;;10.15;4.65;;;;;;;12.53;37.15;99607.78;5073055;28;20036;-71
2021/05/08 06:46:39;;;;;;;6.30;4.35;;;;;;;12.65;37.16;99604.41;5070248;28;20044;-70
2021/05/08 06:49:05;;;;;;;6.20;4.10;;;;;;;12.77;36.63;99602.78;5062429;28;20055;-70
2021/05/08 06:51:30;;;;;;;6.55;4.47;;;;;;;12.77;36.70;99601.94;5061297;28;20048;-69
2021/05/08 06:53:56;;;;;;;7.20;3.88;;;;;;;12.81;37.58;99598.16;5062570;28;20032;-69
2021/05/08 06:56:23;;;;;;;6.03;3.72;;;;;;;12.80;36.98;99605.25;5062647;28;20037;-68
2021/05/08 06:58:50;;;;;;;9.15;4.05;;;;;;;12.64;37.15;99588.63;5060880;28;20033;-69
2021/05/08 07:01:15;;;;;;;6.00;3.83;;;;;;;12.64;37.06;99588.63;5062073;28;20078;-69
2021/05/08 07:03:40;;;;;;;7.40;4.13;;;;;;;12.60;37.56;99592.38;5062885;28;20025;-69
2021/05/08 07:06:06;;;;;;;8.02;3.80;;;;;;;12.58;37.27;99589.00;5060504;28;20036;-70
2021/05/08 07:08:31;;;;;;;6.97;3.30;;;;;;;12.48;37.63;99591.34;5069196;28;20048;-69
2021/05/08 07:10:57;;;;;;;6.63;3.95;;;;;;;12.48;37.55;99588.72;5072918;28;20119;-69
2021/05/08 07:13:23;;;;;;;5.82;3.58;;;;;;;12.49;37.56;99584.25;5069313;28;20670;-67
2021/05/08 07:15:49;;;;;;;8.70;4.38;;;;;;;12.44;37.62;99577.44;5071542;28;20510;-68
2021/05/08 07:18:14;;;;;;;6.72;3.72;;;;;;;12.46;38.01;99577.38;5063607;28;20131;-69
2021/05/08 07:20:40;;;;;;;6.70;4.45;;;;;;;12.40;38.48;99583.00;5062906;28;20176;-61
2021/05/08 07:23:06;;;;;;;9.23;3.45;;;;;;;12.51;37.26;99583.22;5067627;28;20063;-61
2021/05/08 07:25:33;;;;;;;8.32;4.38;;;;;;;12.53;37.05;99586.63;5072260;28;20028;-59
2021/05/08 07:28:15;;;;;;;7.65;3.53;;;;;;;12.58;37.09;99578.44;5073032;28;20029;-62
2021/05/08 07:30:42;;;;;;;6.85;3.85;;;;;;;12.51;37.57;99571.81;5072540;28;20029;-63
2021/05/08 07:33:09;;;;;;;12.23;4.40;;;;;;;12.50;37.30;99578.88;5072523;28;20395;-62
2021/05/08 07:35:35;;;;;;;7.97;3.88;;;;;;;12.45;37.52;99571.25;5071716;28;20036;-63
2021/05/08 07:38:00;;;;;;;9.85;3.55;;;;;;;12.51;37.72;99570.00;5054410;28;20044;-62
2021/05/08 07:40:26;;;;;;;7.32;4.38;;;;;;;12.49;37.38;99568.41;5072523;28;20029;-62
2021/05/08 07:42:51;;;;;;;7.28;3.65;;;;;;;12.47;37.89;99557.91;5071839;28;20028;-62
2021/05/08 07:45:17;;;;;;;8.27;4.13;;;;;;;12.44;37.95;99561.59;5088693;28;20046;-62
2021/05/08 07:47:42;;;;;;;6.93;3.63;;;;;;;12.56;37.23;99564.44;5040515;28;20071;-62
2021/05/08 07:50:08;;;;;;;5.78;3.70;;;;;;;12.61;37.47;99571.13;5066201;28;20033;-63
2021/05/08 07:52:34;;;;;;;7.30;4.25;;;;;;;12.66;37.40;99558.47;5048467;28;20573;-64
2021/05/08 07:55:09;;;;;;;9.70;3.90;;;;;;;12.75;37.22;99564.13;5063156;28;20056;-63
2021/05/08 07:57:36;;;;;;;7.93;3.88;;;;;;;12.80;36.89;99557.66;5053199;28;20064;-62
2021/05/08 08:00:07;;;;;;;6.63;3.83;;;;;;;12.87;37.50;99552.78;5063172;28;20043;-64
2021/05/08 08:02:33;;;;;;;20.05;6.22;;;;;;;12.97;36.79;99550.44;5063317;28;20465;-63
2021/05/08 08:04:58;;;;;;;108.47;70.60;;;;;;;13.24;37.16;99540.75;5052862;28;20037;-47
2021/05/08 08:07:23;;;;;;;67.00;42.47;;;;;;;13.41;36.37;99544.97;5063593;28;20638;-48
2021/05/08 08:09:49;;;;;;;61.20;34.88;;;;;;;13.68;36.34;99533.53;5061823;28;20049;-48
2021/05/08 08:12:23;;;;;;;6.53;5.13;;;;;;;13.69;34.97;99529.94;5033224;28;20037;-69
2021/05/08 08:14:49;;;;;;;6.72;3.80;;;;;;;13.59;35.39;99542.09;5057390;28;20051;-69
2021/05/08 08:17:14;;;;;;;11.02;4.25;;;;;;;13.54;35.55;99537.09;5064217;28;20036;-69
2021/05/08 08:19:40;;;;;;;8.82;4.18;;;;;;;13.56;35.91;99529.91;5055300;28;20052;-70
2021/05/08 08:22:05;;;;;;;7.32;3.67;;;;;;;13.67;35.88;99522.09;5064857;28;20090;-67
2021/05/08 08:24:47;;;;;;;6.38;3.72;;;;;;;13.74;35.27;99522.53;5052443;28;20734;-72
2021/05/08 08:27:13;;;;;;;5.28;3.90;;;;;;;13.82;35.61;99524.66;5048223;28;20039;-71
2021/05/08 08:29:39;;;;;;;7.72;3.58;;;;;;;13.82;35.78;99529.97;5066218;28;20514;-69
2021/05/08 08:32:05;;;;;;;5.60;3.92;;;;;;;13.96;35.24;99516.66;5047955;28;20039;-70
2021/05/08 08:34:31;;;;;;;5.35;3.40;;;;;;;14.07;35.15;99513.25;5065303;28;20060;-70
2021/05/08 08:36:59;;;;;;;5.95;3.25;;;;;;;14.12;34.46;99511.97;5084412;28;20077;-71
2021/05/08 08:39:25;;;;;;;5.35;3.17;;;;;;;14.46;34.41;99511.47;5067486;28;20035;-69
2021/05/08 08:41:53;;;;;;;5.15;2.97;;;;;;;14.58;34.06;99508.00;5044022;28;20032;-68
2021/05/08 08:44:19;;;;;;;8.20;3.40;;;;;;;14.63;33.23;99494.41;5040630;28;20040;-68
2021/05/08 08:46:45;;;;;;;4.68;3.15;;;;;;;14.69;33.21;99499.25;5057988;28;20047;-69
2021/05/08 08:49:11;;;;;;;7.22;3.25;;;;;;;14.80;33.51;99488.75;5057073;28;20122;-69
2021/05/08 08:51:39;;;;;;;4.22;2.88;;;;;;;14.95;34.02;99487.63;5064933;28;20036;-69
2021/05/08 08:54:04;;;;;;;5.90;2.58;;;;;;;14.84;32.93;99492.91;5064566;28;20044;-70
2021/05/08 08:56:38;;;;;;;6.35;2.90;;;;;;;14.92;33.69;99469.28;5061350;28;20036;-70
2021/05/08 08:59:12;;;;;;;4.88;3.17;;;;;;;15.06;33.08;99464.78;5065731;28;20178;-69
2021/05/08 09:01:38;;;;;;;4.75;2.85;;;;;;;15.27;32.18;99463.22;5065257;28;20149;-71
2021/05/08 09:04:03;;;;;;;3.75;2.65;;;;;;;15.31;32.63;99459.38;5060810;28;20147;-67
2021/05/08 09:06:30;;;;;;;5.70;3.78;;;;;;;15.50;32.33;99450.84;5064535;28;20036;-69
2021/05/08 09:08:57;;;;;;;4.97;3.25;;;;;;;15.79;31.53;99442.53;5064106;28;20066;-68
2021/05/08 09:11:24;;;;;;;4.35;2.75;;;;;;;15.95;31.18;99448.38;5065097;28;20586;-71
2021/05/08 09:14:35;;;;;;;3.33;2.50;;;;;;;16.29;31.48;99440.41;5056803;28;20044;-71
2021/05/08 09:17:11;;;;;;;16.35;3.45;;;;;;;16.39;30.92;99438.75;5042308;28;20040;-67
2021/05/08 09:19:42;;;;;;;5.68;3.30;;;;;;;16.67;30.05;99447.19;5045654;28;20067;-70
2021/05/08 09:22:32;;;;;;;9.30;4.80;;;;;;;16.91;30.31;99455.91;5045473;28;20045;-69
2021/05/08 09:25:14;;;;;;;4.30;2.85;;;;;;;17.01;29.59;99453.34;5055369;28;20044;-71
2021/05/08 09:27:52;;;;;;;4.47;2.83;;;;;;;16.93;29.79;99445.97;5064182;28;20036;-69
2021/05/08 09:30:28;;;;;;;5.07;2.80;;;;;;;16.72;30.13;99442.34;5064897;28;20044;-70
2021/05/08 09:32:56;;;;;;;4.95;3.28;;;;;;;16.50;30.77;99436.06;5065421;28;20056;-70
2021/05/08 09:35:25;;;;;;;5.15;2.70;;;;;;;16.44;30.87;99436.56;5064872;28;20083;-70
2021/05/08 09:38:06;;;;;;;4.45;2.38;;;;;;;16.38;30.44;99431.72;5063623;28;20168;-71
2021/05/08 09:40:31;;;;;;;5.18;2.70;;;;;;;16.25;30.79;99428.34;5064992;28;20142;-71
2021/05/08 09:42:58;;;;;;;2.88;2.20;;;;;;;16.05;31.05;99428.09;5067450;28;20543;-69
2021/05/08 09:45:25;;;;;;;4.32;2.42;;;;;;;16.08;31.52;99422.53;5082964;28;20035;-71
2021/05/08 09:47:52;;;;;;;4.78;2.83;;;;;;;16.07;31.44;99427.94;5064297;28;20053;-69
2021/05/08 09:50:23;;;;;;;6.40;3.83;;;;;;;15.92;31.65;99422.00;5064911;28;20040;-70
2021/05/08 09:52:58;;;;;;;4.22;3.38;;;;;;;15.84;32.05;99427.06;5063492;28;20048;-69
2021/05/08 09:55:24;;;;;;;5.03;2.60;;;;;;;15.78;32.36;99435.53;5064126;28;20025;-69
2021/05/08 09:58:07;;;;;;;6.80;3.67;;;;;;;15.58;32.64;99432.56;5064103;28;20071;-70
2021/05/08 10:00:40;;;;;;;4.15;2.85;;;;;;;15.50;32.89;99431.41;5084554;28;20038;-69
2021/05/08 10:03:10;;;;;;;6.18;3.15;;;;;;;15.54;33.30;99433.72;5054616;28;20519;-71
2021/05/08 10:05:37;;;;;;;5.90;3.40;;;;;;;15.55;33.06;99439.88;5042607;28;20044;-70
2021/05/08 10:08:05;;;;;;;5.00;2.65;;;;;;;15.52;32.96;99434.81;5047932;28;20558;-70
2021/05/08 10:10:30;;;;;;;6.57;2.90;;;;;;;15.51;33.00;99436.63;5047749;28;20044;-69
2021/05/08 10:12:56;;;;;;;4.50;2.65;;;;;;;15.37;33.50;99428.84;5058318;28;20419;-70
2021/05/08 10:15:23;;;;;;;4.43;2.63;;;;;;;15.22;33.79;99422.88;5052656;28;20037;-69
2021/05/08 10:17:51;;;;;;;4.35;2.13;;;;;;;15.05;34.99;99423.28;5053937;28;20044;-69
2021/05/08 10:20:20;;;;;;;4.65;2.95;;;;;;;15.01;35.47;99419.97;5054007;28;20186;-71
2021/05/08 10:23:05;;;;;;;3.25;2.15;;;;;;;14.79;36.89;99416.25;5033001;28;20515;-70
2021/05/08 10:25:31;;;;;;;3.55;2.17;;;;;;;14.73;36.96;99410.53;5046002;28;20551;-70
2021/05/08 10:27:57;;;;;;;8.30;2.60;;;;;;;14.54;37.30;99397.75;5052172;28;20048;-71
2021/05/08 10:30:49;;;;;;;3.03;1.88;;;;;;;14.75;37.41;99392.69;5056720;28;20041;-68
2021/05/08 10:33:17;;;;;;;4.85;2.35;;;;;;;15.02;36.47;99388.00;5058654;28;20439;-71
2021/05/08 10:35:47;;;;;;;6.82;3.25;;;;;;;15.42;35.98;99374.41;5058247;28;20059;-71
2021/05/08 10:38:19;;;;;;;3.22;2.05;;;;;;;15.56;36.36;99367.22;5058776;28;20531;-69
2021/05/08 10:41:01;;;;;;;3.22;1.80;;;;;;;15.60;34.76;99364.19;5057266;28;20048;-71
2021/05/08 10:43:54;;;;;;;9.43;3.35;;;;;;;15.51;35.63;99358.75;5045847;28;20036;-69
2021/05/08 10:46:22;;;;;;;4.25;2.30;;;;;;;15.45;36.49;99360.03;5061279;28;20110;-69
2021/05/08 10:49:06;;;;;;;3.40;1.90;;;;;;;15.53;34.51;99352.34;5048525;28;20557;-68
2021/05/08 10:51:56;;;;;;;4.90;2.38;;;;;;;15.66;34.10;99358.41;5063783;28;20048;-70
2021/05/08 10:54:40;;;;;;;4.72;2.10;;;;;;;15.69;33.34;99349.34;5063478;28;20054;-69
2021/05/08 10:57:32;;;;;;;2.25;1.70;;;;;;;15.83;33.65;99329.69;5047863;28;20095;-69
2021/05/08 11:00:00;;;;;;;3.00;1.60;;;;;;;15.77;34.34;99328.34;5059650;28;20633;-70
2021/05/08 11:02:41;;;;;;;4.68;2.28;;;;;;;15.82;34.80;99317.34;5042097;28;20045;-69
2021/05/08 11:05:22;;;;;;;5.50;2.50;;;;;;;15.59;36.79;99330.59;5063629;28;20575;-70
2021/05/08 11:07:47;;;;;;;3.17;2.08;;;;;;;15.59;35.02;99314.66;5063440;28;20119;-70
2021/05/08 11:10:31;;;;;;;7.05;2.20;;;;;;;15.57;35.97;99313.09;5049145;28;20128;-69
2021/05/08 11:13:15;;;;;;;5.55;2.15;;;;;;;15.59;35.46;99303.19;5058148;28;20455;-69
2021/05/08 11:15:49;;;;;;;4.13;1.85;;;;;;;15.53;35.80;99293.03;5052391;28;20032;-70
2021/05/08 11:18:30;;;;;;;3.50;2.30;;;;;;;15.57;36.21;99295.31;5063036;28;20060;-69
2021/05/08 11:20:56;;;;;;;3.05;1.80;;;;;;;15.53;37.17;99304.53;5062777;28;20444;-68
2021/05/08 11:23:21;;;;;;;4.47;2.05;;;;;;;15.39;37.96;99300.25;5063470;28;20500;-70
2021/05/08 11:25:47;;;;;;;3.55;1.92;;;;;;;15.45;38.38;99304.25;5053393;28;20070;-69
2021/05/08 11:28:12;;;;;;;5.80;2.10;;;;;;;15.51;38.18;99305.59;5043410;28;20040;-71
2021/05/08 11:30:51;;;;;;;3.85;2.35;;;;;;;15.47;38.47;99286.38;5060882;28;20040;-70
2021/05/08 11:33:21;;;;;;;4.93;2.78;;;;;;;15.40;38.71;99285.16;5073298;28;20036;-69
2021/05/08 11:36:02;;;;;;;7.57;2.92;;;;;;;15.45;38.43;99272.38;5078356;28;20046;-68
2021/05/08 11:38:27;;;;;;;6.63;2.78;;;;;;;15.51;38.14;99271.06;5067288;28;20040;-69